KHUL 180201Z AUTO 17005KT 3SM -RA BR BKN055 BKN080 OVC100 18/18 A2994 RMK AO2 P0001 T01780178